Davenport, Virginia
Current Conditions -  °F | °C
As of 7:15 AM on Friday 28 Nov 2014 (Local Time) from KJFZ Reporting Station
Overcast Overcast  
Wind Chill: -8°   Ceiling: 2000
Heat Index: -3°   Visibility: 10mi
Dew Point: -7°   Wind: 8mph
Humidity: 79%   Direction: 310°NW
Pressure: 30.27"   Gusts: NA
Location:  37.1°N, 82.14°W
Report Text: KJFZ 281215Z AUTO 31007KT 10SM SCT014 OVC020 M03/M06 A3027 RMK AO2 T10331065
Loading
Personal Weather Stations






























Interactive Weather Map New forecast layout! Learn more

10-Day Weather Forecast

Advertisements
Track Severe Weather on mobile